Time;durP1;ratioP1;P1;durP2;ratioP2;P2;SDS_P1;SDS_P2;PMS_P1;PMS_P2;Temp;Humidity;BMP_temperature;BMP_pressure;BME280_temperature;BME280_humidity;BME280_pressure;Samples;Min_cycle;Max_cycle;Signal;HPM_P1;HPM_P2
2023/01/07 00:00:33;;;;;;;12.45;10.95;;;;;;;;;;5084671;28;20210;-61
2023/01/07 00:02:59;;;;;;;12.65;10.73;;;;;;;;;;5077222;28;20194;-61
2023/01/07 00:05:25;;;;;;;13.50;12.10;;;;;;;;;;5082470;28;20151;-61
2023/01/07 00:07:51;;;;;;;13.25;11.18;;;;;;;;;;5076328;28;20043;-60
2023/01/07 00:10:17;;;;;;;12.48;11.27;;;;;;;;;;5078111;28;20056;-60
2023/01/07 00:12:43;;;;;;;12.88;11.50;;;;;;;;;;5077910;28;20144;-60
2023/01/07 00:15:09;;;;;;;13.43;12.00;;;;;;;;;;5079583;28;20048;-60
2023/01/07 00:17:35;;;;;;;17.50;14.82;;;;;;;;;;5077629;28;20039;-59
2023/01/07 00:20:01;;;;;;;15.48;13.88;;;;;;;;;;5073486;28;20118;-61
2023/01/07 00:22:27;;;;;;;15.68;14.07;;;;;;;;;;5078869;28;20291;-62
2023/01/07 00:24:53;;;;;;;17.30;14.52;;;;;;;;;;5078024;28;20400;-61
2023/01/07 00:27:19;;;;;;;15.50;13.90;;;;;;;;;;5079631;28;20054;-61
2023/01/07 00:29:45;;;;;;;15.50;13.18;;;;;;;;;;5077758;28;20849;-60
2023/01/07 00:32:11;;;;;;;15.05;13.55;;;;;;;;;;5077482;28;20488;-60
2023/01/07 00:34:37;;;;;;;15.15;13.65;;;;;;;;;;5076186;28;20045;-61
2023/01/07 00:39:48;;;;;;;15.68;14.07;;;;;;;;;;5075684;28;20045;-60
2023/01/07 00:44:59;;;;;;;14.55;13.13;;;;;;;;;;5074355;28;20702;-60
2023/01/07 00:47:25;;;;;;;14.02;12.63;;;;;;;;;;5076242;28;20093;-62
2023/01/07 00:49:51;;;;;;;12.40;11.07;;;;;;;;;;5075754;28;20044;-60
2023/01/07 00:52:17;;;;;;;13.35;12.05;;;;;;;;;;5072424;28;20043;-60
2023/01/07 00:54:44;;;;;;;13.68;12.27;;;;;;;;;;5072703;28;20055;-60
2023/01/07 00:57:12;;;;;;;12.43;11.32;;;;;;;;;;5072579;28;20094;-61
2023/01/07 00:59:39;;;;;;;11.40;10.30;;;;;;;;;;5070758;28;20063;-61
2023/01/07 01:02:05;;;;;;;13.15;11.75;;;;;;;;;;5077229;28;20040;-60
2023/01/07 01:04:31;;;;;;;11.68;10.50;;;;;;;;;;5075298;28;20079;-61
2023/01/07 01:06:57;;;;;;;10.30;9.40;;;;;;;;;;5070436;28;20143;-61
2023/01/07 01:09:25;;;;;;;11.82;10.63;;;;;;;;;;5077595;28;20118;-62
2023/01/07 01:11:51;;;;;;;12.05;10.68;;;;;;;;;;5076715;28;20109;-61
2023/01/07 01:14:17;;;;;;;12.77;11.48;;;;;;;;;;5071319;28;20040;-61
2023/01/07 01:16:43;;;;;;;11.38;10.32;;;;;;;;;;5072518;28;20044;-62
2023/01/07 01:19:09;;;;;;;12.00;10.90;;;;;;;;;;5074381;28;20474;-60
2023/01/07 01:21:35;;;;;;;9.93;9.00;;;;;;;;;;5066261;28;20040;-61
2023/01/07 01:24:01;;;;;;;9.63;8.73;;;;;;;;;;5081149;28;20810;-61
2023/01/07 01:26:27;;;;;;;10.00;9.10;;;;;;;;;;5066999;28;20037;-60
2023/01/07 01:28:53;;;;;;;10.18;9.25;;;;;;;;;;5070195;28;20179;-61
2023/01/07 01:31:19;;;;;;;11.18;10.07;;;;;;;;;;5065591;28;20040;-61
2023/01/07 01:33:45;;;;;;;10.48;9.48;;;;;;;;;;5072782;28;20582;-59
2023/01/07 01:36:12;;;;;;;9.90;9.00;;;;;;;;;;5065674;28;20131;-61
2023/01/07 01:38:38;;;;;;;9.52;8.63;;;;;;;;;;5065718;28;20136;-61
2023/01/07 01:41:04;;;;;;;10.18;9.25;;;;;;;;;;5064793;28;20083;-61
2023/01/07 01:43:30;;;;;;;11.80;10.70;;;;;;;;;;5069512;28;20036;-60
2023/01/07 01:45:57;;;;;;;10.18;9.27;;;;;;;;;;5070840;28;20914;-59
2023/01/07 01:48:23;;;;;;;10.00;9.20;;;;;;;;;;5079419;28;20071;-61
2023/01/07 01:50:51;;;;;;;9.40;8.60;;;;;;;;;;5081495;28;20538;-62
2023/01/07 01:53:23;;;;;;;10.18;9.27;;;;;;;;;;5073020;28;20079;-60
2023/01/07 01:55:52;;;;;;;10.02;9.07;;;;;;;;;;5067055;28;20053;-60
2023/01/07 01:58:27;;;;;;;9.52;8.73;;;;;;;;;;5068221;28;20060;-61
2023/01/07 02:00:53;;;;;;;11.40;10.40;;;;;;;;;;5064641;28;20055;-59
2023/01/07 02:03:21;;;;;;;9.85;8.95;;;;;;;;;;5065298;28;20039;-60
2023/01/07 02:05:47;;;;;;;10.63;9.80;;;;;;;;;;5068756;28;20051;-60
2023/01/07 02:08:20;;;;;;;9.90;9.00;;;;;;;;;;5074051;28;20063;-62
2023/01/07 02:10:47;;;;;;;8.43;7.72;;;;;;;;;;5072721;28;20091;-60
2023/01/07 02:13:13;;;;;;;8.40;7.70;;;;;;;;;;5075032;28;20516;-61
2023/01/07 02:15:48;;;;;;;10.30;9.50;;;;;;;;;;5068314;28;20043;-62
2023/01/07 02:18:30;;;;;;;10.68;9.73;;;;;;;;;;5072938;28;20040;-60
2023/01/07 02:20:59;;;;;;;10.00;9.13;;;;;;;;;;5065217;28;20057;-61
2023/01/07 02:23:44;;;;;;;8.85;8.10;;;;;;;;;;5063634;28;20075;-59
2023/01/07 02:26:22;;;;;;;11.45;10.45;;;;;;;;;;5065170;28;20046;-62
2023/01/07 02:29:05;;;;;;;12.30;11.20;;;;;;;;;;5065280;28;20055;-60
2023/01/07 02:31:49;;;;;;;13.27;11.98;;;;;;;;;;5072954;28;20087;-60
2023/01/07 02:34:20;;;;;;;10.25;9.45;;;;;;;;;;5073098;28;20102;-60
2023/01/07 02:36:50;;;;;;;13.38;12.20;;;;;;;;;;5071849;28;20048;-61
2023/01/07 02:39:25;;;;;;;11.30;10.20;;;;;;;;;;5072356;28;20395;-61
2023/01/07 02:41:58;;;;;;;11.15;10.25;;;;;;;;;;5072340;28;20794;-61
2023/01/07 02:44:44;;;;;;;11.52;10.63;;;;;;;;;;5070968;28;20052;-61
2023/01/07 02:47:19;;;;;;;11.05;10.05;;;;;;;;;;5080283;28;20149;-61
2023/01/07 02:49:46;;;;;;;12.27;11.07;;;;;;;;;;5073763;28;20097;-60
2023/01/07 02:52:23;;;;;;;12.80;11.70;;;;;;;;;;5064579;28;20048;-61
2023/01/07 02:54:58;;;;;;;11.18;10.18;;;;;;;;;;5065233;28;20048;-60
2023/01/07 02:57:33;;;;;;;12.70;11.50;;;;;;;;;;5064158;28;20082;-62
2023/01/07 03:00:14;;;;;;;12.73;11.63;;;;;;;;;;5064447;28;20456;-61
2023/01/07 03:02:49;;;;;;;12.25;11.15;;;;;;;;;;5069636;28;20117;-61
2023/01/07 03:05:18;;;;;;;10.15;9.25;;;;;;;;;;5072096;28;20039;-63
2023/01/07 03:07:57;;;;;;;10.60;9.75;;;;;;;;;;5072067;28;20083;-60
2023/01/07 03:10:29;;;;;;;11.60;10.50;;;;;;;;;;5072010;28;20064;-62
2023/01/07 03:12:59;;;;;;;10.70;9.90;;;;;;;;;;5063689;28;20080;-60
2023/01/07 03:15:28;;;;;;;12.48;11.25;;;;;;;;;;5071029;28;20120;-61
2023/01/07 03:17:59;;;;;;;14.45;13.10;;;;;;;;;;5074881;28;20051;-61
2023/01/07 03:20:26;;;;;;;13.48;12.27;;;;;;;;;;5081546;28;20433;-61
2023/01/07 03:22:53;;;;;;;13.05;11.85;;;;;;;;;;5067659;28;20487;-61
2023/01/07 03:25:21;;;;;;;13.50;12.30;;;;;;;;;;5082404;28;20088;-61
2023/01/07 03:27:49;;;;;;;10.93;10.02;;;;;;;;;;5076219;28;20076;-61
2023/01/07 03:30:16;;;;;;;14.57;13.30;;;;;;;;;;5071776;28;20136;-59
2023/01/07 03:32:46;;;;;;;14.27;13.07;;;;;;;;;;5067811;28;20048;-61
2023/01/07 03:35:12;;;;;;;13.90;12.70;;;;;;;;;;5068048;28;20041;-61
2023/01/07 03:37:41;;;;;;;13.35;12.25;;;;;;;;;;5068228;28;20403;-60
2023/01/07 03:40:09;;;;;;;14.55;13.15;;;;;;;;;;5066907;28;20048;-61
2023/01/07 03:42:38;;;;;;;15.20;13.80;;;;;;;;;;5068141;28;20119;-60
2023/01/07 03:45:05;;;;;;;16.98;15.30;;;;;;;;;;5075041;28;20052;-61
2023/01/07 03:47:31;;;;;;;15.95;14.45;;;;;;;;;;5076122;28;20040;-61
2023/01/07 03:49:57;;;;;;;15.70;14.30;;;;;;;;;;5078207;28;20048;-61
2023/01/07 03:52:23;;;;;;;15.38;14.07;;;;;;;;;;5068618;28;20508;-61
2023/01/07 03:54:49;;;;;;;15.05;13.60;;;;;;;;;;5066922;28;20084;-60
2023/01/07 03:57:15;;;;;;;17.55;15.95;;;;;;;;;;5075122;28;20036;-60
2023/01/07 03:59:41;;;;;;;16.17;14.75;;;;;;;;;;5068130;28;20048;-61
2023/01/07 04:02:07;;;;;;;16.67;15.18;;;;;;;;;;5076014;28;20044;-60
2023/01/07 04:04:33;;;;;;;16.83;15.20;;;;;;;;;;5073453;28;20048;-61
2023/01/07 04:06:59;;;;;;;15.68;14.20;;;;;;;;;;5067819;28;20093;-63
2023/01/07 04:09:25;;;;;;;17.20;15.60;;;;;;;;;;5078951;28;20052;-59
2023/01/07 04:11:51;;;;;;;17.08;15.57;;;;;;;;;;5068217;28;20113;-61
2023/01/07 04:14:17;;;;;;;16.05;14.55;;;;;;;;;;5067048;28;20528;-59
2023/01/07 04:16:43;;;;;;;16.35;14.80;;;;;;;;;;5074171;28;20139;-60
2023/01/07 04:19:09;;;;;;;14.95;13.55;;;;;;;;;;5082024;28;20096;-61
2023/01/07 04:21:36;;;;;;;15.27;13.77;;;;;;;;;;5074080;28;20036;-60
2023/01/07 04:24:02;;;;;;;16.30;14.80;;;;;;;;;;5074875;28;20044;-61
2023/01/07 04:26:28;;;;;;;14.88;13.68;;;;;;;;;;5066744;28;20048;-61
2023/01/07 04:28:54;;;;;;;16.02;14.52;;;;;;;;;;5066270;28;20155;-60
2023/01/07 04:31:20;;;;;;;15.27;13.88;;;;;;;;;;5074035;28;20170;-61
2023/01/07 04:33:46;;;;;;;15.35;13.85;;;;;;;;;;5067024;28;20040;-60
2023/01/07 04:36:12;;;;;;;15.13;13.63;;;;;;;;;;5065879;28;20048;-60
2023/01/07 04:38:38;;;;;;;16.67;14.90;;;;;;;;;;5067198;28;20416;-61
2023/01/07 04:41:04;;;;;;;13.95;12.48;;;;;;;;;;5066765;28;20527;-61
2023/01/07 04:43:30;;;;;;;15.07;13.48;;;;;;;;;;5065793;28;20177;-59
2023/01/07 04:45:56;;;;;;;14.60;13.25;;;;;;;;;;5066405;28;20131;-61
2023/01/07 04:48:22;;;;;;;14.57;13.25;;;;;;;;;;5070102;28;20059;-59
2023/01/07 04:50:48;;;;;;;15.50;13.98;;;;;;;;;;5069035;28;20094;-60
2023/01/07 04:53:14;;;;;;;15.23;13.73;;;;;;;;;;5065585;28;20036;-59
2023/01/07 04:55:40;;;;;;;16.27;14.60;;;;;;;;;;5075067;28;20048;-61
2023/01/07 04:58:06;;;;;;;15.10;13.70;;;;;;;;;;5065181;28;20076;-59
2023/01/07 05:00:33;;;;;;;16.52;14.82;;;;;;;;;;5066016;28;20040;-61
2023/01/07 05:02:59;;;;;;;15.27;13.68;;;;;;;;;;5073715;28;20048;-60
2023/01/07 05:05:25;;;;;;;16.35;14.68;;;;;;;;;;5074060;28;20042;-60
2023/01/07 05:07:51;;;;;;;14.68;13.38;;;;;;;;;;5076528;28;20048;-60
2023/01/07 05:10:17;;;;;;;14.70;13.27;;;;;;;;;;5076785;28;20063;-59
2023/01/07 05:12:43;;;;;;;17.63;15.00;;;;;;;;;;5080980;28;20117;-61
2023/01/07 05:15:09;;;;;;;14.55;13.15;;;;;;;;;;5084295;28;20056;-60
2023/01/07 05:17:35;;;;;;;13.93;12.57;;;;;;;;;;5077778;28;20047;-61
2023/01/07 05:20:01;;;;;;;14.35;12.90;;;;;;;;;;5080891;28;20048;-59
2023/01/07 05:22:27;;;;;;;14.90;13.40;;;;;;;;;;5080583;28;20446;-59
2023/01/07 05:24:53;;;;;;;16.20;14.52;;;;;;;;;;5077657;28;20048;-61
2023/01/07 05:27:19;;;;;;;15.50;13.80;;;;;;;;;;5078459;28;20463;-60
2023/01/07 05:29:45;;;;;;;17.15;15.38;;;;;;;;;;5074486;28;20044;-59
2023/01/07 05:32:11;;;;;;;15.07;13.52;;;;;;;;;;5073732;28;20052;-61
2023/01/07 05:34:37;;;;;;;16.45;14.68;;;;;;;;;;5077495;28;20132;-60
2023/01/07 05:37:03;;;;;;;15.85;14.25;;;;;;;;;;5079916;28;20304;-61
2023/01/07 05:39:29;;;;;;;16.05;14.45;;;;;;;;;;5083159;28;20046;-61
2023/01/07 05:41:55;;;;;;;15.38;13.88;;;;;;;;;;5083518;28;20040;-61
2023/01/07 05:44:21;;;;;;;16.65;15.05;;;;;;;;;;5082130;28;20050;-59
2023/01/07 05:46:47;;;;;;;14.48;13.07;;;;;;;;;;5079018;28;20079;-60
2023/01/07 05:49:13;;;;;;;14.25;12.68;;;;;;;;;;5082354;28;20047;-61
2023/01/07 05:51:39;;;;;;;14.65;13.05;;;;;;;;;;5081933;28;20048;-61
2023/01/07 05:54:06;;;;;;;12.82;11.57;;;;;;;;;;5074197;28;20048;-61
2023/01/07 05:56:32;;;;;;;14.65;13.27;;;;;;;;;;5074753;28;20079;-61
2023/01/07 05:58:58;;;;;;;12.23;10.98;;;;;;;;;;5083260;28;20082;-61
2023/01/07 06:01:24;;;;;;;14.73;12.73;;;;;;;;;;5078611;28;20043;-61
2023/01/07 06:03:50;;;;;;;11.02;9.93;;;;;;;;;;5078651;28;20044;-59
2023/01/07 06:06:16;;;;;;;11.70;9.93;;;;;;;;;;5076933;28;20383;-60
2023/01/07 06:08:42;;;;;;;10.23;9.30;;;;;;;;;;5073838;28;20127;-61
2023/01/07 06:11:09;;;;;;;12.23;10.98;;;;;;;;;;5075182;28;20131;-59
2023/01/07 06:13:35;;;;;;;12.48;10.38;;;;;;;;;;5080613;28;20040;-61
2023/01/07 06:16:02;;;;;;;11.13;9.98;;;;;;;;;;5075294;28;20045;-62
2023/01/07 06:18:28;;;;;;;10.13;9.13;;;;;;;;;;5071985;28;20087;-61
2023/01/07 06:20:54;;;;;;;9.45;8.55;;;;;;;;;;5071598;28;20446;-61
2023/01/07 06:23:20;;;;;;;10.95;9.80;;;;;;;;;;5077374;28;20040;-60
2023/01/07 06:25:46;;;;;;;10.40;9.40;;;;;;;;;;5076728;28;20044;-61
2023/01/07 06:28:12;;;;;;;9.55;8.57;;;;;;;;;;5075624;28;20108;-61
2023/01/07 06:30:39;;;;;;;10.18;8.63;;;;;;;;;;5073640;28;20044;-61
2023/01/07 06:33:05;;;;;;;9.20;8.40;;;;;;;;;;5073076;28;20040;-61
2023/01/07 06:35:32;;;;;;;7.88;7.18;;;;;;;;;;5070179;28;20131;-62
2023/01/07 06:37:59;;;;;;;10.15;7.80;;;;;;;;;;5076911;28;20051;-59
2023/01/07 06:40:25;;;;;;;8.43;7.63;;;;;;;;;;5074977;28;20044;-61
2023/01/07 06:42:51;;;;;;;8.13;7.32;;;;;;;;;;5077125;28;20406;-60
2023/01/07 06:45:17;;;;;;;8.48;7.65;;;;;;;;;;5074124;28;20041;-60
2023/01/07 06:47:44;;;;;;;10.40;9.50;;;;;;;;;;5074725;28;20044;-60
2023/01/07 06:50:10;;;;;;;9.70;8.13;;;;;;;;;;5073516;28;20059;-61
2023/01/07 06:52:36;;;;;;;10.05;9.05;;;;;;;;;;5077820;28;20047;-61
2023/01/07 06:55:03;;;;;;;9.48;8.57;;;;;;;;;;5079655;28;20458;-61
2023/01/07 06:57:29;;;;;;;9.02;8.00;;;;;;;;;;5079286;28;20043;-60
2023/01/07 06:59:55;;;;;;;9.30;8.40;;;;;;;;;;5072861;28;20052;-61
2023/01/07 07:02:25;;;;;;;9.27;8.38;;;;;;;;;;5082307;28;20036;-60
2023/01/07 07:04:51;;;;;;;14.20;8.65;;;;;;;;;;5078857;28;20040;-60
2023/01/07 07:07:18;;;;;;;9.77;8.88;;;;;;;;;;5075549;28;20123;-60
2023/01/07 07:09:44;;;;;;;9.10;8.20;;;;;;;;;;5079690;28;20056;-59
2023/01/07 07:12:10;;;;;;;9.73;7.88;;;;;;;;;;5078240;28;20512;-61
2023/01/07 07:14:36;;;;;;;9.35;8.18;;;;;;;;;;5077687;28;20091;-60
2023/01/07 07:17:02;;;;;;;9.02;7.75;;;;;;;;;;5075385;28;20044;-61
2023/01/07 07:19:28;;;;;;;11.02;8.00;;;;;;;;;;5079253;28;20050;-61
2023/01/07 07:21:54;;;;;;;11.75;7.57;;;;;;;;;;5078734;28;20040;-61
2023/01/07 07:24:21;;;;;;;8.77;7.97;;;;;;;;;;5076996;28;20048;-61
2023/01/07 07:26:47;;;;;;;7.53;6.82;;;;;;;;;;5078341;28;20036;-60
2023/01/07 07:29:13;;;;;;;7.28;6.57;;;;;;;;;;5081903;28;20052;-60
2023/01/07 07:31:39;;;;;;;8.23;6.63;;;;;;;;;;5080936;28;20448;-61
2023/01/07 07:34:05;;;;;;;7.80;7.10;;;;;;;;;;5080434;28;20066;-60
2023/01/07 07:36:31;;;;;;;8.98;7.13;;;;;;;;;;5077297;28;20044;-61
2023/01/07 07:38:57;;;;;;;6.93;6.30;;;;;;;;;;5077513;28;20511;-61
2023/01/07 07:41:23;;;;;;;7.13;6.43;;;;;;;;;;5076131;28;20070;-61
2023/01/07 07:43:49;;;;;;;6.28;5.70;;;;;;;;;;5082836;28;20070;-61
2023/01/07 07:46:15;;;;;;;7.65;6.50;;;;;;;;;;5078003;28;20076;-60
2023/01/07 07:48:41;;;;;;;7.53;6.75;;;;;;;;;;5079804;28;20055;-60
2023/01/07 07:51:07;;;;;;;7.65;6.95;;;;;;;;;;5073837;28;20396;-61
2023/01/07 07:53:33;;;;;;;8.75;7.40;;;;;;;;;;5080503;28;20473;-61
2023/01/07 07:55:59;;;;;;;6.85;6.25;;;;;;;;;;5080844;28;20123;-60
2023/01/07 07:58:25;;;;;;;6.93;6.20;;;;;;;;;;5075537;28;20456;-62
2023/01/07 08:00:52;;;;;;;8.15;6.40;;;;;;;;;;5074648;28;20084;-59
2023/01/07 08:03:18;;;;;;;8.52;6.55;;;;;;;;;;5073295;28;20055;-61
2023/01/07 08:05:45;;;;;;;8.05;6.70;;;;;;;;;;5078226;28;20048;-60
2023/01/07 08:08:12;;;;;;;6.82;6.15;;;;;;;;;;5078734;28;20496;-61
2023/01/07 08:10:38;;;;;;;6.25;5.65;;;;;;;;;;5073779;28;20616;-61
2023/01/07 08:13:05;;;;;;;6.18;5.57;;;;;;;;;;5081939;28;20124;-61
2023/01/07 08:15:31;;;;;;;6.10;5.70;;;;;;;;;;5076790;28;20068;-61
2023/01/07 08:18:00;;;;;;;4.80;4.38;;;;;;;;;;5078900;28;20071;-60
2023/01/07 08:20:27;;;;;;;6.13;5.07;;;;;;;;;;5084275;28;20119;-60
2023/01/07 08:22:53;;;;;;;5.63;4.85;;;;;;;;;;5072746;28;20575;-61
2023/01/07 08:25:20;;;;;;;6.38;5.20;;;;;;;;;;5081696;28;20580;-61
2023/01/07 08:27:46;;;;;;;6.05;5.43;;;;;;;;;;5077440;28;20522;-59
2023/01/07 08:30:12;;;;;;;5.50;4.82;;;;;;;;;;5077942;28;20058;-61
2023/01/07 08:32:38;;;;;;;5.47;4.88;;;;;;;;;;5076860;28;20037;-61
2023/01/07 08:35:04;;;;;;;5.40;4.50;;;;;;;;;;5074250;28;20048;-61
2023/01/07 08:37:30;;;;;;;6.00;5.40;;;;;;;;;;5077087;28;20511;-60
2023/01/07 08:39:56;;;;;;;5.68;5.18;;;;;;;;;;5080852;28;20051;-61
2023/01/07 08:42:22;;;;;;;5.18;4.68;;;;;;;;;;5075245;28;20036;-61
2023/01/07 08:44:49;;;;;;;5.32;3.95;;;;;;;;;;5077241;28;20040;-61
2023/01/07 08:47:15;;;;;;;4.95;4.55;;;;;;;;;;5076096;28;20093;-60
2023/01/07 08:49:41;;;;;;;4.45;4.00;;;;;;;;;;5076913;28;20471;-61
2023/01/07 08:52:07;;;;;;;4.20;3.80;;;;;;;;;;5076047;28;20141;-59
2023/01/07 08:54:33;;;;;;;4.80;4.40;;;;;;;;;;5079238;28;20471;-61
2023/01/07 08:56:59;;;;;;;5.07;3.45;;;;;;;;;;5078095;28;20092;-61
2023/01/07 08:59:25;;;;;;;3.65;3.35;;;;;;;;;;5077157;28;20071;-61
2023/01/07 09:01:51;;;;;;;4.22;3.83;;;;;;;;;;5076061;28;20051;-61
2023/01/07 09:04:17;;;;;;;3.33;3.03;;;;;;;;;;5076422;28;20094;-60
2023/01/07 09:06:43;;;;;;;4.43;3.47;;;;;;;;;;5075174;28;20044;-60
2023/01/07 09:09:10;;;;;;;3.63;3.33;;;;;;;;;;5075367;28;20074;-61
2023/01/07 09:11:36;;;;;;;3.60;3.30;;;;;;;;;;5079403;28;20052;-61
2023/01/07 09:14:02;;;;;;;3.55;3.25;;;;;;;;;;5073759;28;20051;-59
2023/01/07 09:16:28;;;;;;;4.28;3.10;;;;;;;;;;5074356;28;20048;-59
2023/01/07 09:18:54;;;;;;;3.85;3.50;;;;;;;;;;5073640;28;20052;-60
2023/01/07 09:21:20;;;;;;;3.70;3.40;;;;;;;;;;5083284;28;20120;-58
2023/01/07 09:23:46;;;;;;;3.60;2.45;;;;;;;;;;5081493;28;20502;-58
2023/01/07 09:26:12;;;;;;;3.78;2.58;;;;;;;;;;5078867;28;20041;-60
2023/01/07 09:28:38;;;;;;;2.83;2.53;;;;;;;;;;5083647;28;20182;-59
2023/01/07 09:31:05;;;;;;;3.72;2.67;;;;;;;;;;5074246;28;20132;-58
2023/01/07 09:33:32;;;;;;;3.20;2.72;;;;;;;;;;5075160;28;20043;-60
2023/01/07 09:35:58;;;;;;;2.78;2.58;;;;;;;;;;5077491;28;20086;-59
2023/01/07 09:38:24;;;;;;;3.00;2.80;;;;;;;;;;5078598;28;20043;-59
2023/01/07 09:40:50;;;;;;;3.63;2.83;;;;;;;;;;5075723;28;20052;-60
2023/01/07 09:43:20;;;;;;;4.07;2.58;;;;;;;;;;5080957;28;20051;-59
2023/01/07 09:45:51;;;;;;;3.40;3.10;;;;;;;;;;5078718;28;20062;-59
2023/01/07 09:48:22;;;;;;;3.40;2.75;;;;;;;;;;5073181;28;20518;-60
2023/01/07 09:50:53;;;;;;;3.50;3.03;;;;;;;;;;5078519;28;20062;-59
2023/01/07 09:53:27;;;;;;;3.95;2.53;;;;;;;;;;5080824;28;20054;-59
2023/01/07 09:55:54;;;;;;;2.33;2.13;;;;;;;;;;5068016;28;20128;-61
2023/01/07 09:58:21;;;;;;;2.35;2.15;;;;;;;;;;5082497;28;20047;-59
2023/01/07 10:01:00;;;;;;;3.35;2.63;;;;;;;;;;5073837;28;20048;-59
2023/01/07 10:03:42;;;;;;;3.03;2.20;;;;;;;;;;5076396;28;20044;-58
2023/01/07 10:06:15;;;;;;;2.33;2.13;;;;;;;;;;5069916;28;20066;-58
2023/01/07 10:09:06;;;;;;;2.50;2.30;;;;;;;;;;5082012;28;20433;-58
2023/01/07 10:11:32;;;;;;;2.50;2.30;;;;;;;;;;5078736;28;20051;-59
2023/01/07 10:14:07;;;;;;;2.80;2.60;;;;;;;;;;5073613;28;20063;-58
2023/01/07 10:16:42;;;;;;;2.75;2.17;;;;;;;;;;5075438;28;20048;-59
2023/01/07 10:19:19;;;;;;;2.33;2.08;;;;;;;;;;5077272;28;20051;-57
2023/01/07 10:21:51;;;;;;;2.65;2.20;;;;;;;;;;5069094;28;20093;-57
2023/01/07 10:24:28;;;;;;;2.33;2.10;;;;;;;;;;5084853;28;20106;-57
2023/01/07 10:27:06;;;;;;;2.50;2.20;;;;;;;;;;5083551;28;20036;-60
2023/01/07 10:29:35;;;;;;;4.45;2.15;;;;;;;;;;5077015;28;20093;-59
2023/01/07 10:32:06;;;;;;;4.82;2.80;;;;;;;;;;5074636;28;20064;-60
2023/01/07 10:34:41;;;;;;;3.03;2.40;;;;;;;;;;5075850;28;20036;-58
2023/01/07 10:37:22;;;;;;;2.80;2.45;;;;;;;;;;5084243;28;20040;-59
2023/01/07 10:39:57;;;;;;;2.67;2.20;;;;;;;;;;5087339;28;20048;-58
2023/01/07 10:42:30;;;;;;;2.47;1.90;;;;;;;;;;5078713;28;20431;-58
2023/01/07 10:45:08;;;;;;;2.00;1.90;;;;;;;;;;5078830;28;20089;-58
2023/01/07 10:47:55;;;;;;;2.60;2.30;;;;;;;;;;5077818;28;20058;-58
2023/01/07 10:50:21;;;;;;;3.72;2.65;;;;;;;;;;5034519;28;20049;-58
2023/01/07 10:53:05;;;;;;;3.63;2.45;;;;;;;;;;5086667;28;20518;-58
2023/01/07 10:55:40;;;;;;;2.38;2.08;;;;;;;;;;5083776;28;20044;-59
2023/01/07 10:58:09;;;;;;;4.70;2.25;;;;;;;;;;5080844;28;20045;-58
2023/01/07 11:00:35;;;;;;;2.13;1.95;;;;;;;;;;5084393;28;20032;-60
2023/01/07 11:03:01;;;;;;;2.70;2.05;;;;;;;;;;5083882;28;20403;-60
2023/01/07 11:05:33;;;;;;;2.13;1.80;;;;;;;;;;5080954;28;20039;-58
2023/01/07 11:08:00;;;;;;;3.22;1.88;;;;;;;;;;5081707;28;20507;-59
2023/01/07 11:10:29;;;;;;;3.42;1.83;;;;;;;;;;5067643;28;20079;-58
2023/01/07 11:13:13;;;;;;;2.03;1.92;;;;;;;;;;5079864;28;20040;-60
2023/01/07 11:15:42;;;;;;;2.53;2.33;;;;;;;;;;5082032;28;20048;-58
2023/01/07 11:18:23;;;;;;;2.55;2.35;;;;;;;;;;5072877;28;20052;-59
2023/01/07 11:20:54;;;;;;;2.78;1.63;;;;;;;;;;5086147;28;20058;-59
2023/01/07 11:23:39;;;;;;;1.80;1.70;;;;;;;;;;5080498;28;20041;-58
2023/01/07 11:26:22;;;;;;;1.95;1.85;;;;;;;;;;5074286;28;20108;-58
2023/01/07 11:28:51;;;;;;;1.90;1.58;;;;;;;;;;5070753;28;20139;-58
2023/01/07 11:31:18;;;;;;;2.05;1.95;;;;;;;;;;5077152;28;21450;-58
2023/01/07 11:33:51;;;;;;;1.80;1.70;;;;;;;;;;5081456;28;20110;-58
2023/01/07 11:36:18;;;;;;;3.08;1.70;;;;;;;;;;5067697;28;20051;-58
2023/01/07 11:38:44;;;;;;;1.40;1.17;;;;;;;;;;5074358;28;20045;-58
2023/01/07 11:41:21;;;;;;;2.00;1.60;;;;;;;;;;5070483;28;20522;-61
2023/01/07 11:43:48;;;;;;;1.83;1.52;;;;;;;;;;5086307;28;20174;-58
2023/01/07 11:46:15;;;;;;;1.58;1.48;;;;;;;;;;5087592;28;20177;-59
2023/01/07 11:48:55;;;;;;;2.65;1.90;;;;;;;;;;5086654;28;20036;-60
2023/01/07 11:51:21;;;;;;;1.83;1.70;;;;;;;;;;5081201;28;20064;-55
2023/01/07 11:53:50;;;;;;;1.60;1.50;;;;;;;;;;5072757;28;20048;-59
2023/01/07 11:56:19;;;;;;;1.98;1.30;;;;;;;;;;5078604;28;20106;-61
2023/01/07 11:58:46;;;;;;;2.58;1.20;;;;;;;;;;5078916;28;20044;-59
2023/01/07 12:01:14;;;;;;;2.47;1.20;;;;;;;;;;5082618;28;20431;-59
2023/01/07 12:03:42;;;;;;;1.77;1.20;;;;;;;;;;5087670;28;20082;-59
2023/01/07 12:06:11;;;;;;;1.55;1.45;;;;;;;;;;5085401;28;20044;-60
2023/01/07 12:08:40;;;;;;;2.55;1.33;;;;;;;;;;5086314;28;20059;-59
2023/01/07 12:11:07;;;;;;;1.42;1.13;;;;;;;;;;5072229;28;20548;-61
2023/01/07 12:13:34;;;;;;;1.13;1.05;;;;;;;;;;5077999;28;20285;-59
2023/01/07 12:16:02;;;;;;;2.00;1.17;;;;;;;;;;5077601;28;20105;-60
2023/01/07 12:18:28;;;;;;;1.83;1.10;;;;;;;;;;5074742;28;20051;-60
2023/01/07 12:21:08;;;;;;;1.40;1.30;;;;;;;;;;5087288;28;20074;-60
2023/01/07 12:23:53;;;;;;;6.57;1.33;;;;;;;;;;5087825;28;20057;-60
2023/01/07 12:26:21;;;;;;;1.50;1.40;;;;;;;;;;5087493;28;20044;-60
2023/01/07 12:28:47;;;;;;;2.63;1.80;;;;;;;;;;5086142;28;20311;-60
2023/01/07 12:31:18;;;;;;;2.50;1.17;;;;;;;;;;5078800;28;20184;-58
2023/01/07 12:33:50;;;;;;;1.27;1.17;;;;;;;;;;5081797;28;20059;-61
2023/01/07 12:36:16;;;;;;;1.00;0.90;;;;;;;;;;5078813;28;20106;-61
2023/01/07 12:38:45;;;;;;;1.90;1.20;;;;;;;;;;5087711;28;20047;-62
2023/01/07 12:41:18;;;;;;;1.23;1.13;;;;;;;;;;5070956;28;20053;-61
2023/01/07 12:44:04;;;;;;;1.55;1.17;;;;;;;;;;5067651;28;20045;-61
2023/01/07 12:46:44;;;;;;;2.40;1.25;;;;;;;;;;5070292;28;20045;-61
2023/01/07 12:49:15;;;;;;;1.67;1.23;;;;;;;;;;5064851;28;20044;-62
2023/01/07 12:52:05;;;;;;;1.27;1.17;;;;;;;;;;5068064;28;20040;-61
2023/01/07 12:54:37;;;;;;;1.23;1.10;;;;;;;;;;5061635;28;20668;-61
2023/01/07 12:57:06;;;;;;;1.02;0.98;;;;;;;;;;5067736;28;20037;-62
2023/01/07 12:59:37;;;;;;;1.40;1.30;;;;;;;;;;5066014;28;20040;-61
2023/01/07 13:02:26;;;;;;;2.35;1.25;;;;;;;;;;5083061;28;20040;-59
2023/01/07 13:05:10;;;;;;;1.70;1.15;;;;;;;;;;5057888;28;20113;-62
2023/01/07 13:07:47;;;;;;;1.30;1.20;;;;;;;;;;5081909;28;20136;-61
2023/01/07 13:10:23;;;;;;;2.50;1.45;;;;;;;;;;5085568;28;20517;-60
2023/01/07 13:12:52;;;;;;;2.50;1.60;;;;;;;;;;5079511;28;20052;-62
2023/01/07 13:15:21;;;;;;;1.63;1.17;;;;;;;;;;5077913;28;20052;-61
2023/01/07 13:17:48;;;;;;;1.30;1.20;;;;;;;;;;5071500;28;20158;-61
2023/01/07 13:20:15;;;;;;;1.48;1.10;;;;;;;;;;5079392;28;20117;-60
2023/01/07 13:23:00;;;;;;;1.25;1.02;;;;;;;;;;5078604;28;20131;-61
2023/01/07 13:25:41;;;;;;;1.05;0.95;;;;;;;;;;5077581;28;20180;-61
2023/01/07 13:28:25;;;;;;;0.90;0.90;;;;;;;;;;5081815;28;20043;-61
2023/01/07 13:30:58;;;;;;;1.80;0.95;;;;;;;;;;5073904;28;20127;-61
2023/01/07 13:33:32;;;;;;;0.98;0.90;;;;;;;;;;5081238;28;20131;-62
2023/01/07 13:36:06;;;;;;;1.05;0.82;;;;;;;;;;5084366;28;20051;-61
2023/01/07 13:38:32;;;;;;;1.98;0.90;;;;;;;;;;5081485;28;20645;-61
2023/01/07 13:41:04;;;;;;;1.20;1.10;;;;;;;;;;5077446;28;20058;-61
2023/01/07 13:43:39;;;;;;;1.88;0.80;;;;;;;;;;5080019;28;20047;-63
2023/01/07 13:46:11;;;;;;;0.93;0.93;;;;;;;;;;5077984;28;20128;-61
2023/01/07 13:48:38;;;;;;;0.90;0.90;;;;;;;;;;5079485;28;20048;-61
2023/01/07 13:51:05;;;;;;;1.42;1.25;;;;;;;;;;5070557;28;20043;-61
2023/01/07 13:53:31;;;;;;;1.52;1.00;;;;;;;;;;5084422;28;20075;-62
2023/01/07 13:56:16;;;;;;;1.83;1.58;;;;;;;;;;5086863;28;20079;-61
2023/01/07 13:58:45;;;;;;;2.10;1.60;;;;;;;;;;5065779;28;20040;-60
2023/01/07 14:01:10;;;;;;;3.63;1.63;;;;;;;;;;5074614;28;20081;-62
2023/01/07 14:03:39;;;;;;;1.52;1.38;;;;;;;;;;5085749;28;20543;-61
2023/01/07 14:06:28;;;;;;;1.20;1.10;;;;;;;;;;5068539;28;20473;-61
2023/01/07 14:08:57;;;;;;;1.40;1.30;;;;;;;;;;5070430;28;20048;-61
2023/01/07 14:11:40;;;;;;;1.73;1.35;;;;;;;;;;5084342;28;20462;-59
2023/01/07 14:14:06;;;;;;;1.90;1.30;;;;;;;;;;5083059;28;20063;-61
2023/01/07 14:16:41;;;;;;;2.00;1.60;;;;;;;;;;5085054;28;20036;-60
2023/01/07 14:19:28;;;;;;;1.20;1.10;;;;;;;;;;5085361;28;20048;-59
2023/01/07 14:22:00;;;;;;;1.40;1.00;;;;;;;;;;5035382;28;20084;-59
2023/01/07 14:24:26;;;;;;;;;;;;;;;;;;5085216;28;20414;-60
2023/01/07 14:26:55;;;;;;;1.90;1.58;;;;;;;;;;5084667;28;19920;-60
2023/01/07 14:29:47;;;;;;;1.30;1.20;;;;;;;;;;5084956;28;20094;-60
2023/01/07 14:32:19;;;;;;;1.13;1.08;;;;;;;;;;5073362;28;20060;-60
2023/01/07 14:35:04;;;;;;;0.85;0.82;;;;;;;;;;5083994;28;20044;-58
2023/01/07 14:37:32;;;;;;;2.08;1.23;;;;;;;;;;5076686;28;20075;-60
2023/01/07 14:39:58;;;;;;;1.35;1.10;;;;;;;;;;5081069;28;20123;-59
2023/01/07 14:42:41;;;;;;;1.88;1.10;;;;;;;;;;5082929;28;20043;-59
2023/01/07 14:45:25;;;;;;;1.13;1.02;;;;;;;;;;5081055;28;20399;-59
2023/01/07 14:47:52;;;;;;;1.30;1.20;;;;;;;;;;5082961;28;20048;-59
2023/01/07 14:50:21;;;;;;;1.48;1.38;;;;;;;;;;5083849;28;20052;-58